| time (UTC) | temp C | wind direction | speed KPH | gust KPH | rain 1hr cm | rain 24hr cm | rain mn cm | humidity % | barometer mb |
| 20260901200954 | 16 | 225 | 3.2 | 4.8 | 0.00 | 0.00 | 0.00 | 82 | 1018.5 |
| 20260901200454 | 16 | 226 | 3.2 | 4.8 | 0.00 | 0.00 | 0.00 | 82 | 1018.6 |
| 20260901200005 | 16 | 0 | 0.0 | 0.0 | 0.00 | 0.03 | 0.03 | 82 | 1016.7 |
| 20260901195505 | 16 | 0 | 0.0 | 0.0 | 0.00 | 0.03 | 0.03 | 82 | 1016.8 |
| 20260901195453 | 16 | 237 | 4.8 | 6.4 | 0.00 | 0.00 | 0.00 | 82 | 1018.8 |
| 20260901195005 | 16 | 0 | 0.0 | 0.0 | 0.00 | 0.03 | 0.03 | 82 | 1016.8 |
| 20260901194953 | 16 | 232 | 4.8 | 6.4 | 0.00 | 0.00 | 0.00 | 82 | 1018.7 |
| 20260901194506 | 16 | 0 | 0.0 | 0.0 | 0.00 | 0.03 | 0.03 | 82 | 1016.7 |
| 20260901194455 | 16 | 222 | 4.8 | 6.4 | 0.00 | 0.00 | 0.00 | 82 | 1018.6 |
| 20260901194006 | 16 | 225 | 0.0 | 1.6 | 0.00 | 0.03 | 0.03 | 82 | 1016.8 |
| 20260901193954 | 16 | 219 | 4.8 | 6.4 | 0.00 | 0.00 | 0.00 | 82 | 1018.6 |
| 20260901193453 | 16 | 225 | 4.8 | 4.8 | 0.00 | 0.00 | 0.00 | 82 | 1018.5 |
| 20260901193006 | 16 | 181 | 0.0 | 3.2 | 0.00 | 0.03 | 0.03 | 81 | 1016.8 |
| 20260901192506 | 16 | 225 | 0.0 | 3.2 | 0.00 | 0.03 | 0.03 | 81 | 1016.8 |
| 20260901192454 | 16 | 234 | 3.2 | 4.8 | 0.00 | 0.00 | 0.00 | 82 | 1019.0 |
| 20260901192005 | 16 | 255 | 1.6 | 4.8 | 0.00 | 0.03 | 0.03 | 81 | 1016.8 |
| 20260901191953 | 16 | 231 | 3.2 | 4.8 | 0.00 | 0.00 | 0.00 | 81 | 1018.8 |
| 20260901191506 | 16 | 267 | 1.6 | 4.8 | 0.00 | 0.03 | 0.03 | 81 | 1016.7 |
| 20260901191453 | 16 | 240 | 3.2 | 4.8 | 0.00 | 0.00 | 0.00 | 81 | 1018.8 |
| 20260901191005 | 16 | 225 | 0.0 | 1.6 | 0.00 | 0.03 | 0.03 | 81 | 1016.7 |
| 20260901190453 | 16 | 226 | 3.2 | 4.8 | 0.00 | 0.00 | 0.00 | 81 | 1018.7 |
| 20260901190006 | 16 | 0 | 0.0 | 0.0 | 0.00 | 0.03 | 0.03 | 81 | 1016.7 |
| 20260901190001 | 16 | 224 | 3.2 | 4.8 | 0.00 | 0.00 | 0.00 | 81 | 1018.8 |
| 20260901185506 | 16 | 225 | 0.0 | 3.2 | 0.00 | 0.03 | 0.03 | 81 | 1016.8 |
| 20260901185455 | 16 | 229 | 3.2 | 4.8 | 0.00 | 0.00 | 0.00 | 81 | 1018.7 |
| 20260901185005 | 16 | 225 | 0.0 | 3.2 | 0.00 | 0.03 | 0.03 | 81 | 1016.6 |
| 20260901184505 | 16 | 225 | 0.0 | 3.2 | 0.00 | 0.03 | 0.03 | 80 | 1016.6 |
| 20260901184454 | 16 | 219 | 3.2 | 4.8 | 0.00 | 0.00 | 0.00 | 81 | 1018.6 |
| 20260901184005 | 16 | 225 | 0.0 | 3.2 | 0.00 | 0.03 | 0.03 | 80 | 1016.6 |
| 20260901183954 | 16 | 225 | 3.2 | 4.8 | 0.00 | 0.00 | 0.00 | 80 | 1018.6 |
| 20260901183453 | 16 | 228 | 3.2 | 3.2 | 0.00 | 0.00 | 0.00 | 80 | 1018.5 |
| 20260901183005 | 16 | 225 | 0.0 | 3.2 | 0.00 | 0.03 | 0.03 | 79 | 1016.6 |
| 20260901182954 | 16 | 231 | 3.2 | 3.2 | 0.00 | 0.00 | 0.00 | 78 | 1018.4 |
| 20260901182505 | 16 | 0 | 0.0 | 0.0 | 0.00 | 0.03 | 0.03 | 78 | 1016.5 |
| 20260901181954 | 16 | 212 | 1.6 | 3.2 | 0.00 | 0.00 | 0.00 | 77 | 1018.3 |
| 20260901181454 | 17 | 218 | 1.6 | 3.2 | 0.00 | 0.00 | 0.00 | 75 | 1018.3 |
| 20260901180506 | 17 | 0 | 0.0 | 0.0 | 0.00 | 0.03 | 0.03 | 74 | 1016.3 |
| 20260901180454 | 17 | 181 | 1.6 | 3.2 | 0.00 | 0.00 | 0.00 | 74 | 1018.3 |
| 20260901180006 | 17 | 0 | 0.0 | 0.0 | 0.00 | 0.03 | 0.03 | 74 | 1016.3 |
| 20260901180001 | 17 | 181 | 1.6 | 3.2 | 0.00 | 0.00 | 0.00 | 74 | 1018.1 |
| 20260901175505 | 17 | 0 | 0.0 | 0.0 | 0.00 | 0.03 | 0.03 | 74 | 1016.2 |
| 20260901175454 | 17 | 205 | 1.6 | 3.2 | 0.00 | 0.00 | 0.00 | 73 | 1018.0 |
| 20260901175005 | 17 | 234 | 1.6 | 6.4 | 0.00 | 0.03 | 0.03 | 73 | 1016.1 |
| 20260901174953 | 17 | 240 | 3.2 | 6.4 | 0.00 | 0.00 | 0.00 | 73 | 1018.1 |
| 20260901174505 | 17 | 232 | 3.2 | 6.4 | 0.00 | 0.03 | 0.03 | 72 | 1016.2 |
| 20260901174454 | 17 | 265 | 4.8 | 6.4 | 0.00 | 0.00 | 0.00 | 72 | 1018.0 |
| 20260901174007 | 17 | 243 | 4.8 | 6.4 | 0.00 | 0.03 | 0.03 | 72 | 1016.1 |
| 20260901173505 | 18 | 258 | 6.4 | 6.4 | 0.00 | 0.03 | 0.03 | 71 | 1016.1 |
| 20260901173453 | 18 | 263 | 6.4 | 6.4 | 0.00 | 0.00 | 0.00 | 71 | 1017.8 |
| 20260901173006 | 18 | 256 | 6.4 | 6.4 | 0.00 | 0.03 | 0.03 | 71 | 1016.0 |
| 20260901172953 | 18 | 268 | 6.4 | 6.4 | 0.00 | 0.00 | 0.00 | 70 | 1017.9 |
| 20260901172506 | 18 | 257 | 6.4 | 8.0 | 0.00 | 0.03 | 0.03 | 71 | 1016.2 |
| 20260901172454 | 18 | 260 | 8.0 | 8.0 | 0.00 | 0.00 | 0.00 | 70 | 1017.8 |
| 20260901172006 | 18 | 281 | 6.4 | 8.0 | 0.00 | 0.03 | 0.03 | 70 | 1016.0 |
| 20260901171953 | 18 | 262 | 8.0 | 8.0 | 0.00 | 0.00 | 0.00 | 70 | 1017.9 |
| 20260901171506 | 18 | 288 | 8.0 | 8.0 | 0.00 | 0.03 | 0.03 | 70 | 1016.0 |
| 20260901171454 | 18 | 264 | 8.0 | 9.7 | 0.00 | 0.00 | 0.00 | 69 | 1018.0 |
| 20260901171006 | 18 | 262 | 8.0 | 9.7 | 0.00 | 0.03 | 0.03 | 69 | 1016.0 |
| 20260901170954 | 18 | 272 | 8.0 | 9.7 | 0.00 | 0.00 | 0.00 | 69 | 1017.7 |
| 20260901170453 | 18 | 280 | 9.7 | 11.3 | 0.00 | 0.00 | 0.00 | 68 | 1017.5 |
| 20260901165959 | 18 | 274 | 11.3 | 16.1 | 0.00 | 0.00 | 0.00 | 68 | 1017.8 |
| 20260901165454 | 18 | 273 | 11.3 | 16.1 | 0.00 | 0.00 | 0.00 | 68 | 1017.7 |
| 20260901164954 | 18 | 264 | 9.7 | 12.9 | 0.00 | 0.00 | 0.00 | 68 | 1017.7 |
| 20260901164506 | 18 | 270 | 11.3 | 12.9 | 0.00 | 0.03 | 0.03 | 68 | 1015.7 |
| 20260901164006 | 18 | 290 | 12.9 | 19.3 | 0.00 | 0.03 | 0.03 | 67 | 1015.8 |
| 20260901163954 | 18 | 298 | 12.9 | 19.3 | 0.00 | 0.00 | 0.00 | 67 | 1017.6 |
| 20260901163505 | 18 | 270 | 14.5 | 19.3 | 0.00 | 0.03 | 0.03 | 66 | 1015.8 |
| 20260901163453 | 18 | 300 | 12.9 | 19.3 | 0.00 | 0.00 | 0.00 | 65 | 1017.7 |
| 20260901163005 | 19 | 263 | 14.5 | 17.7 | 0.00 | 0.03 | 0.03 | 65 | 1015.8 |
| 20260901162954 | 19 | 284 | 14.5 | 17.7 | 0.00 | 0.00 | 0.00 | 65 | 1017.6 |
| 20260901162505 | 19 | 268 | 16.1 | 24.1 | 0.00 | 0.03 | 0.03 | 65 | 1015.7 |
| 20260901162454 | 19 | 289 | 17.7 | 24.1 | 0.00 | 0.00 | 0.00 | 65 | 1017.6 |
| 20260901161953 | 19 | 298 | 19.3 | 24.1 | 0.00 | 0.00 | 0.00 | 64 | 1017.7 |
| 20260901161505 | 19 | 277 | 20.9 | 25.7 | 0.00 | 0.03 | 0.03 | 65 | 1015.7 |
| 20260901161454 | 19 | 293 | 20.9 | 25.7 | 0.00 | 0.00 | 0.00 | 64 | 1017.6 |
| 20260901161005 | 19 | 292 | 19.3 | 25.7 | 0.00 | 0.03 | 0.03 | 66 | 1015.6 |
| 20260901160953 | 19 | 293 | 19.3 | 25.7 | 0.00 | 0.00 | 0.00 | 65 | 1017.7 |
| 20260901160505 | 19 | 297 | 16.1 | 22.5 | 0.00 | 0.03 | 0.03 | 66 | 1015.7 |
| 20260901160454 | 19 | 303 | 16.1 | 20.9 | 0.00 | 0.00 | 0.00 | 65 | 1017.9 |
| 20260901160006 | 19 | 283 | 16.1 | 22.5 | 0.00 | 0.03 | 0.03 | 67 | 1015.7 |
| 20260901160000 | 19 | 299 | 16.1 | 19.3 | 0.00 | 0.00 | 0.00 | 66 | 1017.5 |
| 20260901155506 | 19 | 293 | 14.5 | 20.9 | 0.00 | 0.03 | 0.03 | 67 | 1015.5 |
| 20260901155453 | 19 | 287 | 16.1 | 19.3 | 0.00 | 0.00 | 0.00 | 66 | 1017.5 |
| 20260901155006 | 19 | 281 | 16.1 | 19.3 | 0.00 | 0.03 | 0.03 | 67 | 1015.6 |
| 20260901154005 | 19 | 287 | 16.1 | 20.9 | 0.00 | 0.03 | 0.03 | 67 | 1015.7 |
| 20260901153953 | 19 | 267 | 16.1 | 20.9 | 0.00 | 0.00 | 0.00 | 66 | 1017.3 |
| 20260901153453 | 19 | 274 | 17.7 | 24.1 | 0.00 | 0.00 | 0.00 | 66 | 1017.5 |
| 20260901153005 | 19 | 281 | 19.3 | 25.7 | 0.00 | 0.03 | 0.03 | 66 | 1015.5 |
| 20260901152953 | 19 | 274 | 19.3 | 24.1 | 0.00 | 0.00 | 0.00 | 65 | 1017.4 |
| 20260901152505 | 20 | 283 | 19.3 | 25.7 | 0.00 | 0.03 | 0.03 | 65 | 1015.5 |
| 20260901152454 | 19 | 276 | 19.3 | 24.1 | 0.00 | 0.00 | 0.00 | 65 | 1017.6 |
| 20260901152006 | 20 | 296 | 19.3 | 25.7 | 0.00 | 0.03 | 0.03 | 65 | 1015.4 |
| 20260901151954 | 20 | 290 | 19.3 | 25.7 | 0.00 | 0.00 | 0.00 | 65 | 1017.6 |
| 20260901151505 | 20 | 322 | 20.9 | 30.6 | 0.00 | 0.03 | 0.03 | 63 | 1015.5 |
| 20260901151454 | 20 | 286 | 20.9 | 32.2 | 0.00 | 0.00 | 0.00 | 64 | 1017.2 |
| 20260901151006 | 20 | 314 | 22.5 | 32.2 | 0.00 | 0.03 | 0.03 | 63 | 1015.3 |
| 20260901150953 | 20 | 294 | 24.1 | 32.2 | 0.00 | 0.00 | 0.00 | 62 | 1017.2 |
| 20260901150506 | 20 | 299 | 22.5 | 32.2 | 0.00 | 0.03 | 0.03 | 63 | 1015.2 |
| 20260901150453 | 20 | 295 | 22.5 | 30.6 | 0.00 | 0.00 | 0.00 | 62 | 1017.3 |
| 20260901150000 | 20 | 302 | 22.5 | 27.4 | 0.00 | 0.00 | 0.00 | 62 | 1017.0 |
| 20260901145505 | 20 | 286 | 19.3 | 24.1 | 0.00 | 0.03 | 0.03 | 63 | 1015.2 |
| 20260901145454 | 20 | 311 | 19.3 | 27.4 | 0.00 | 0.00 | 0.00 | 62 | 1017.1 |
| 20260901144954 | 20 | 310 | 17.7 | 22.5 | 0.00 | 0.00 | 0.00 | 64 | 1017.2 |
| 20260901144505 | 20 | 292 | 19.3 | 30.6 | 0.00 | 0.03 | 0.03 | 64 | 1015.2 |
| 20260901144454 | 20 | 307 | 20.9 | 32.2 | 0.00 | 0.00 | 0.00 | 64 | 1017.1 |
| 20260901144006 | 20 | 271 | 22.5 | 30.6 | 0.00 | 0.03 | 0.03 | 64 | 1015.3 |
| 20260901143954 | 20 | 282 | 24.1 | 32.2 | 0.00 | 0.00 | 0.00 | 63 | 1017.3 |
| 20260901143506 | 20 | 269 | 22.5 | 30.6 | 0.00 | 0.03 | 0.03 | 64 | 1015.2 |
| 20260901143453 | 20 | 284 | 24.1 | 30.6 | 0.00 | 0.03 | 0.00 | 63 | 1017.1 |
| 20260901143006 | 20 | 284 | 24.1 | 40.2 | 0.00 | 0.03 | 0.03 | 65 | 1015.4 |
| 20260901142506 | 20 | 272 | 22.5 | 40.2 | 0.00 | 0.03 | 0.03 | 64 | 1015.2 |
| 20260901142006 | 20 | 265 | 19.3 | 27.4 | 0.00 | 0.03 | 0.03 | 66 | 1015.2 |
| 20260901141953 | 20 | 271 | 19.3 | 27.4 | 0.00 | 0.03 | 0.00 | 65 | 1017.3 |
| 20260901141505 | 20 | 283 | 22.5 | 25.7 | 0.00 | 0.03 | 0.03 | 66 | 1015.2 |
| 20260901141454 | 20 | 270 | 22.5 | 27.4 | 0.00 | 0.03 | 0.00 | 65 | 1017.2 |
| 20260901141005 | 20 | 309 | 19.3 | 24.1 | 0.00 | 0.03 | 0.03 | 67 | 1015.4 |
| 20260901140954 | 20 | 288 | 20.9 | 24.1 | 0.00 | 0.03 | 0.00 | 66 | 1017.1 |
| 20260901140505 | 19 | 298 | 19.3 | 25.7 | 0.00 | 0.03 | 0.03 | 69 | 1015.3 |
| 20260901140453 | 19 | 296 | 19.3 | 24.1 | 0.00 | 0.03 | 0.00 | 68 | 1017.3 |
| 20260901140005 | 19 | 282 | 17.7 | 25.7 | 0.00 | 0.03 | 0.03 | 69 | 1015.2 |
| 20260901140000 | 19 | 304 | 19.3 | 24.1 | 0.00 | 0.03 | 0.00 | 69 | 1017.4 |
| 20260901135505 | 19 | 281 | 17.7 | 24.1 | 0.00 | 0.03 | 0.03 | 70 | 1015.3 |
| 20260901134954 | 19 | 302 | 20.9 | 33.8 | 0.00 | 0.03 | 0.00 | 69 | 1017.3 |
| 20260901134505 | 19 | 288 | 20.9 | 32.2 | 0.00 | 0.03 | 0.03 | 68 | 1015.2 |
| 20260901134005 | 19 | 276 | 19.3 | 32.2 | 0.00 | 0.03 | 0.03 | 69 | 1015.4 |
| 20260901133954 | 19 | 301 | 20.9 | 33.8 | 0.00 | 0.03 | 0.00 | 68 | 1017.3 |
| 20260901133506 | 19 | 263 | 17.7 | 25.7 | 0.00 | 0.03 | 0.03 | 70 | 1015.5 |
| 20260901133453 | 19 | 289 | 17.7 | 27.4 | 0.00 | 0.03 | 0.00 | 68 | 1017.0 |
| 20260901133006 | 19 | 265 | 14.5 | 19.3 | 0.00 | 0.03 | 0.03 | 74 | 1015.5 |
| 20260901132954 | 19 | 272 | 14.5 | 19.3 | 0.00 | 0.03 | 0.00 | 74 | 1017.4 |
| 20260901132506 | 18 | 265 | 14.5 | 17.7 | 0.00 | 0.03 | 0.03 | 74 | 1015.6 |
| 20260901131953 | 18 | 262 | 12.9 | 19.3 | 0.00 | 0.03 | 0.00 | 74 | 1017.4 |
| 20260901131506 | 18 | 295 | 11.3 | 14.5 | 0.00 | 0.03 | 0.03 | 75 | 1015.4 |
| 20260901131454 | 18 | 290 | 12.9 | 17.7 | 0.00 | 0.03 | 0.00 | 75 | 1017.3 |
| 20260901131006 | 18 | 270 | 16.1 | 24.1 | 0.00 | 0.03 | 0.03 | 75 | 1015.5 |
| 20260901130953 | 18 | 270 | 17.7 | 24.1 | 0.00 | 0.03 | 0.00 | 75 | 1017.4 |
| 20260901130506 | 18 | 262 | 17.7 | 24.1 | 0.00 | 0.03 | 0.03 | 75 | 1015.5 |
| 20260901130454 | 17 | 260 | 19.3 | 24.1 | 0.00 | 0.03 | 0.00 | 74 | 1017.4 |
| 20260901130000 | 17 | 277 | 16.1 | 24.1 | 0.00 | 0.03 | 0.00 | 75 | 1017.5 |
| 20260901125506 | 17 | 287 | 16.1 | 24.1 | 0.00 | 0.05 | 0.03 | 75 | 1015.6 |
| 20260901125454 | 17 | 292 | 17.7 | 24.1 | 0.00 | 0.03 | 0.00 | 75 | 1017.4 |
| 20260901125006 | 17 | 296 | 19.3 | 24.1 | 0.00 | 0.05 | 0.03 | 74 | 1015.6 |
| 20260901124954 | 17 | 296 | 20.9 | 27.4 | 0.00 | 0.05 | 0.00 | 74 | 1017.3 |
| 20260901124506 | 18 | 305 | 19.3 | 24.1 | 0.00 | 0.10 | 0.03 | 72 | 1015.7 |
| 20260901124454 | 17 | 300 | 20.9 | 27.4 | 0.00 | 0.05 | 0.00 | 72 | 1017.6 |
| 20260901124005 | 18 | 313 | 20.9 | 27.4 | 0.00 | 0.10 | 0.03 | 71 | 1015.7 |
| 20260901123505 | 18 | 306 | 22.5 | 27.4 | 0.00 | 0.10 | 0.03 | 69 | 1015.6 |
| 20260901123454 | 18 | 248 | 22.5 | 27.4 | 0.00 | 0.13 | 0.00 | 69 | 1017.3 |
| 20260901123005 | 18 | 294 | 19.3 | 25.7 | 0.00 | 0.13 | 0.03 | 67 | 1015.4 |
| 20260901122954 | 18 | 277 | 19.3 | 25.7 | 0.00 | 0.13 | 0.00 | 68 | 1017.4 |
| 20260901122505 | 19 | 287 | 20.9 | 33.8 | 0.00 | 0.13 | 0.03 | 67 | 1015.3 |
| 20260901122454 | 18 | 306 | 20.9 | 32.2 | 0.00 | 0.13 | 0.00 | 66 | 1017.1 |
| 20260901122005 | 19 | 275 | 22.5 | 33.8 | 0.00 | 0.13 | 0.03 | 66 | 1015.3 |
| 20260901121954 | 19 | 289 | 22.5 | 32.2 | 0.00 | 0.13 | 0.00 | 65 | 1017.1 |
| 20260901121505 | 19 | 286 | 22.5 | 27.4 | 0.00 | 0.13 | 0.03 | 67 | 1015.3 |
| 20260901121454 | 19 | 285 | 22.5 | 30.6 | 0.00 | 0.13 | 0.00 | 66 | 1017.0 |
| 20260901121005 | 19 | 300 | 22.5 | 27.4 | 0.00 | 0.13 | 0.03 | 67 | 1015.2 |
| 20260901120953 | 19 | 302 | 24.1 | 30.6 | 0.00 | 0.15 | 0.00 | 67 | 1017.0 |
| 20260901120506 | 19 | 290 | 22.5 | 27.4 | 0.00 | 0.15 | 0.03 | 67 | 1015.2 |
| 20260901120453 | 18 | 306 | 24.1 | 30.6 | 0.00 | 0.15 | 0.00 | 66 | 1017.1 |
| 20260901120006 | 19 | 286 | 25.7 | 32.2 | 0.00 | 0.15 | 0.03 | 67 | 1015.3 |
| 20260901120000 | 19 | 304 | 25.7 | 30.6 | 0.00 | 0.15 | 0.00 | 66 | 1017.3 |
| 20260901115506 | 19 | 264 | 27.4 | 37.0 | 0.00 | 0.15 | 0.03 | 67 | 1015.2 |
| 20260901115005 | 19 | 262 | 22.5 | 37.0 | 0.00 | 0.15 | 0.03 | 68 | 1015.2 |
| 20260901114954 | 19 | 269 | 24.1 | 35.4 | 0.00 | 0.15 | 0.00 | 66 | 1017.0 |
| 20260901114454 | 19 | 311 | 22.5 | 32.2 | 0.00 | 0.15 | 0.00 | 68 | 1017.0 |
| 20260901114005 | 19 | 247 | 27.4 | 35.4 | 0.00 | 0.15 | 0.03 | 67 | 1015.2 |
| 20260901113505 | 20 | 252 | 25.7 | 35.4 | 0.00 | 0.18 | 0.03 | 67 | 1015.2 |
| 20260901113453 | 20 | 296 | 25.7 | 35.4 | 0.00 | 0.18 | 0.00 | 66 | 1017.1 |
| 20260901113005 | 20 | 262 | 22.5 | 32.2 | 0.00 | 0.18 | 0.03 | 71 | 1015.0 |
| 20260901112954 | 20 | 297 | 24.1 | 33.8 | 0.00 | 0.18 | 0.00 | 69 | 1016.8 |
| 20260901112505 | 18 | 272 | 25.7 | 30.6 | 0.00 | 0.18 | 0.03 | 69 | 1015.1 |
| 20260901112005 | 18 | 284 | 29.0 | 33.8 | 0.00 | 0.18 | 0.03 | 67 | 1015.2 |
| 20260901111953 | 18 | 304 | 30.6 | 35.4 | 0.00 | 0.18 | 0.00 | 68 | 1017.1 |
| 20260901111506 | 19 | 281 | 27.4 | 37.0 | 0.00 | 0.18 | 0.03 | 68 | 1015.3 |
| 20260901111453 | 19 | 257 | 29.0 | 38.6 | 0.00 | 0.18 | 0.00 | 67 | 1016.9 |
| 20260901111006 | 18 | 289 | 27.4 | 37.0 | 0.00 | 0.18 | 0.03 | 70 | 1015.1 |
| 20260901110954 | 18 | 251 | 25.7 | 38.6 | 0.00 | 0.18 | 0.00 | 67 | 1016.8 |
| 20260901110506 | 18 | 288 | 24.1 | 30.6 | 0.00 | 0.18 | 0.03 | 71 | 1015.0 |
| 20260901110454 | 18 | 290 | 24.1 | 32.2 | 0.00 | 0.18 | 0.00 | 71 | 1016.8 |
| 20260901110005 | 18 | 258 | 24.1 | 30.6 | 0.00 | 0.18 | 0.03 | 71 | 1015.1 |
| 20260901110000 | 18 | 291 | 24.1 | 32.2 | 0.00 | 0.18 | 0.00 | 70 | 1016.9 |
| 20260901105505 | 18 | 260 | 22.5 | 29.0 | 0.00 | 0.18 | 0.03 | 70 | 1015.1 |
| 20260901105453 | 18 | 272 | 22.5 | 29.0 | 0.00 | 0.18 | 0.00 | 69 | 1016.7 |
| 20260901105005 | 18 | 275 | 19.3 | 29.0 | 0.00 | 0.18 | 0.03 | 71 | 1015.1 |
| 20260901104957 | 18 | 281 | 19.3 | 29.0 | 0.00 | 0.18 | 0.00 | 70 | 1016.8 |
| 20260901104505 | 18 | 290 | 19.3 | 29.0 | 0.00 | 0.18 | 0.03 | 70 | 1015.1 |
| 20260901104454 | 18 | 272 | 20.9 | 30.6 | 0.00 | 0.18 | 0.00 | 71 | 1016.8 |
| 20260901104005 | 18 | 281 | 22.5 | 30.6 | 0.00 | 0.18 | 0.03 | 70 | 1015.0 |
| 20260901103953 | 18 | 267 | 24.1 | 30.6 | 0.00 | 0.18 | 0.00 | 70 | 1016.8 |
| 20260901103005 | 18 | 314 | 25.7 | 32.2 | 0.00 | 0.18 | 0.03 | 68 | 1015.0 |
| 20260901102953 | 18 | 290 | 25.7 | 30.6 | 0.00 | 0.18 | 0.00 | 68 | 1016.6 |
| 20260901102454 | 18 | 295 | 29.0 | 33.8 | 0.00 | 0.18 | 0.00 | 68 | 1016.8 |
| 20260901102005 | 18 | 303 | 29.0 | 33.8 | 0.00 | 0.18 | 0.03 | 67 | 1014.8 |
| 20260901101954 | 18 | 278 | 30.6 | 33.8 | 0.00 | 0.18 | 0.00 | 67 | 1016.4 |
| 20260901101505 | 18 | 284 | 27.4 | 33.8 | 0.03 | 0.18 | 0.03 | 68 | 1014.8 |
| 20260901101453 | 18 | 288 | 29.0 | 33.8 | 0.00 | 0.18 | 0.00 | 68 | 1016.6 |
| 20260901100954 | 18 | 280 | 30.6 | 33.8 | 0.00 | 0.18 | 0.00 | 67 | 1016.7 |
| 20260901100505 | 18 | 257 | 30.6 | 33.8 | 0.03 | 0.18 | 0.03 | 71 | 1014.6 |
| 20260901100454 | 18 | 249 | 30.6 | 35.4 | 0.00 | 0.18 | 0.00 | 68 | 1016.3 |
| 20260901100005 | 18 | 279 | 27.4 | 33.8 | 0.03 | 0.18 | 0.03 | 71 | 1014.8 |
| 20260901100000 | 18 | 250 | 27.4 | 35.4 | 0.00 | 0.18 | 0.00 | 70 | 1016.4 |
| 20260901095506 | 18 | 274 | 25.7 | 35.4 | 0.03 | 0.18 | 0.03 | 71 | 1014.7 |
| 20260901095454 | 18 | 276 | 27.4 | 33.8 | 0.00 | 0.18 | 0.00 | 71 | 1016.5 |
| 20260901095005 | 18 | 297 | 25.7 | 35.4 | 0.03 | 0.18 | 0.03 | 71 | 1014.7 |
| 20260901094953 | 18 | 294 | 27.4 | 33.8 | 0.00 | 0.18 | 0.00 | 70 | 1016.5 |
| 20260901094505 | 18 | 291 | 25.7 | 32.2 | 0.03 | 0.18 | 0.03 | 72 | 1014.8 |
| 20260901094454 | 18 | 299 | 27.4 | 33.8 | 0.00 | 0.18 | 0.00 | 72 | 1016.3 |
| 20260901094005 | 18 | 269 | 25.7 | 33.8 | 0.03 | 0.18 | 0.03 | 73 | 1014.7 |
| 20260901093954 | 18 | 297 | 25.7 | 35.4 | 0.00 | 0.18 | 0.00 | 73 | 1016.6 |
| 20260901093505 | 18 | 278 | 27.4 | 33.8 | 0.03 | 0.18 | 0.03 | 73 | 1014.7 |
| 20260901093005 | 18 | 299 | 27.4 | 35.4 | 0.03 | 0.18 | 0.03 | 72 | 1014.6 |
| 20260901092954 | 18 | 269 | 29.0 | 35.4 | 0.00 | 0.18 | 0.00 | 71 | 1016.5 |
| 20260901092505 | 18 | 305 | 27.4 | 35.4 | 0.03 | 0.18 | 0.03 | 72 | 1014.6 |
| 20260901092005 | 18 | 298 | 25.7 | 35.4 | 0.03 | 0.18 | 0.03 | 72 | 1014.5 |
| 20260901091957 | 18 | 301 | 24.1 | 35.4 | 0.00 | 0.18 | 0.00 | 72 | 1016.3 |
| 20260901091454 | 18 | 293 | 24.1 | 27.4 | 0.00 | 0.18 | 0.00 | 72 | 1016.5 |
| 20260901091006 | 18 | 285 | 20.9 | 30.6 | 0.00 | 0.15 | 0.00 | 72 | 1014.6 |
| 20260901090954 | 18 | 291 | 22.5 | 27.4 | 0.00 | 0.18 | 0.00 | 70 | 1016.1 |
| 20260901090506 | 18 | 280 | 20.9 | 30.6 | 0.00 | 0.15 | 0.00 | 75 | 1014.4 |
| 20260901090454 | 18 | 298 | 20.9 | 27.4 | 0.00 | 0.18 | 0.00 | 72 | 1016.0 |
| 20260901090005 | 18 | 283 | 20.9 | 27.4 | 0.00 | 0.15 | 0.00 | 75 | 1014.6 |
| 20260901085959 | 18 | 310 | 20.9 | 27.4 | 0.00 | 0.18 | 0.00 | 75 | 1016.3 |
| 20260901085506 | 18 | 289 | 22.5 | 27.4 | 0.00 | 0.15 | 0.00 | 74 | 1014.5 |
| 20260901085453 | 18 | 291 | 22.5 | 25.7 | 0.00 | 0.18 | 0.00 | 74 | 1016.3 |
| 20260901084954 | 18 | 302 | 24.1 | 27.4 | 0.00 | 0.18 | 0.00 | 74 | 1016.1 |
| 20260901084454 | 18 | 323 | 24.1 | 27.4 | 0.00 | 0.18 | 0.00 | 73 | 1016.2 |
| 20260901084006 | 18 | 263 | 22.5 | 37.0 | 0.00 | 0.15 | 0.00 | 73 | 1014.5 |
| 20260901083954 | 18 | 313 | 24.1 | 35.4 | 0.00 | 0.18 | 0.00 | 72 | 1015.9 |
| 20260901083505 | 18 | 261 | 22.5 | 37.0 | 0.00 | 0.15 | 0.00 | 75 | 1014.5 |
| 20260901083454 | 18 | 299 | 24.1 | 38.6 | 0.00 | 0.18 | 0.00 | 75 | 1016.1 |
| 20260901083005 | 18 | 272 | 27.4 | 37.0 | 0.00 | 0.15 | 0.00 | 74 | 1014.5 |
| 20260901082954 | 18 | 272 | 27.4 | 38.6 | 0.00 | 0.18 | 0.00 | 74 | 1016.2 |
| 20260901082505 | 18 | 262 | 27.4 | 37.0 | 0.00 | 0.15 | 0.00 | 74 | 1014.4 |
| 20260901082454 | 18 | 275 | 27.4 | 38.6 | 0.00 | 0.18 | 0.00 | 73 | 1016.3 |
| 20260901082005 | 18 | 270 | 19.3 | 27.4 | 0.00 | 0.15 | 0.00 | 76 | 1014.3 |
| 20260901081954 | 18 | 283 | 20.9 | 27.4 | 0.00 | 0.18 | 0.00 | 75 | 1016.0 |
| 20260901081506 | 17 | 291 | 19.3 | 27.4 | 0.00 | 0.15 | 0.00 | 77 | 1014.2 |
| 20260901081453 | 17 | 284 | 20.9 | 25.7 | 0.00 | 0.18 | 0.00 | 77 | 1016.1 |
| 20260901081005 | 17 | 308 | 22.5 | 27.4 | 0.00 | 0.15 | 0.00 | 76 | 1014.3 |
| 20260901080505 | 17 | 299 | 24.1 | 27.4 | 0.00 | 0.15 | 0.00 | 77 | 1014.3 |
| 20260901080454 | 17 | 314 | 24.1 | 27.4 | 0.00 | 0.18 | 0.00 | 77 | 1016.0 |
| 20260901080005 | 17 | 276 | 24.1 | 29.0 | 0.00 | 0.15 | 0.00 | 77 | 1014.4 |
| 20260901080000 | 17 | 302 | 24.1 | 29.0 | 0.00 | 0.18 | 0.00 | 75 | 1015.9 |
| 20260901075505 | 17 | 274 | 20.9 | 29.0 | 0.00 | 0.15 | 0.00 | 79 | 1014.3 |
| 20260901074953 | 17 | 305 | 17.7 | 24.1 | 0.00 | 0.18 | 0.00 | 79 | 1016.0 |
| 20260901074506 | 17 | 304 | 17.7 | 22.5 | 0.00 | 0.15 | 0.00 | 80 | 1014.3 |
| 20260901074454 | 17 | 293 | 19.3 | 24.1 | 0.00 | 0.18 | 0.00 | 79 | 1016.1 |
| 20260901074006 | 17 | 294 | 17.7 | 22.5 | 0.00 | 0.15 | 0.00 | 81 | 1014.4 |
| 20260901073954 | 17 | 295 | 17.7 | 24.1 | 0.00 | 0.18 | 0.00 | 80 | 1016.0 |
| 20260901073505 | 17 | 257 | 17.7 | 22.5 | 0.00 | 0.15 | 0.00 | 81 | 1014.3 |
| 20260901073454 | 17 | 276 | 19.3 | 27.4 | 0.00 | 0.18 | 0.00 | 81 | 1016.1 |
| 20260901073005 | 17 | 243 | 19.3 | 24.1 | 0.00 | 0.15 | 0.00 | 81 | 1014.3 |
| 20260901072954 | 17 | 287 | 19.3 | 27.4 | 0.00 | 0.18 | 0.00 | 80 | 1016.0 |
| 20260901072505 | 17 | 265 | 17.7 | 24.1 | 0.00 | 0.15 | 0.00 | 81 | 1014.3 |
| 20260901072454 | 17 | 294 | 17.7 | 24.1 | 0.00 | 0.18 | 0.00 | 81 | 1016.1 |
| 20260901072005 | 17 | 266 | 17.7 | 24.1 | 0.00 | 0.15 | 0.00 | 81 | 1014.2 |
| 20260901071954 | 17 | 280 | 19.3 | 24.1 | 0.00 | 0.18 | 0.00 | 82 | 1016.1 |
| 20260901071505 | 17 | 265 | 19.3 | 24.1 | 0.00 | 0.15 | 0.00 | 81 | 1014.2 |
| 20260901071005 | 17 | 271 | 16.1 | 24.1 | 0.00 | 0.15 | 0.00 | 81 | 1014.1 |
| 20260901070954 | 17 | 300 | 17.7 | 22.5 | 0.00 | 0.18 | 0.00 | 81 | 1015.8 |
| 20260901070454 | 17 | 301 | 17.7 | 29.0 | 0.00 | 0.18 | 0.00 | 82 | 1015.8 |
| 20260901070005 | 17 | 254 | 16.1 | 30.6 | 0.00 | 0.15 | 0.00 | 83 | 1014.1 |
| 20260901070000 | 17 | 290 | 16.1 | 29.0 | 0.00 | 0.18 | 0.00 | 82 | 1016.0 |
| 20260901065505 | 16 | 250 | 14.5 | 17.7 | 0.00 | 0.15 | 0.00 | 84 | 1014.1 |
| 20260901065453 | 16 | 288 | 14.5 | 17.7 | 0.00 | 0.18 | 0.00 | 84 | 1015.8 |
| 20260901065005 | 16 | 276 | 17.7 | 25.7 | 0.00 | 0.15 | 0.00 | 84 | 1013.9 |
| 20260901064953 | 16 | 286 | 17.7 | 27.4 | 0.00 | 0.18 | 0.00 | 84 | 1015.7 |
| 20260901064505 | 16 | 298 | 19.3 | 27.4 | 0.00 | 0.15 | 0.00 | 84 | 1013.9 |
| 20260901064454 | 16 | 292 | 20.9 | 27.4 | 0.00 | 0.18 | 0.00 | 84 | 1015.6 |
| 20260901064006 | 16 | 288 | 19.3 | 27.4 | 0.00 | 0.15 | 0.00 | 84 | 1013.8 |
| 20260901063953 | 16 | 321 | 19.3 | 27.4 | 0.00 | 0.18 | 0.00 | 84 | 1015.5 |
| 20260901063505 | 16 | 295 | 17.7 | 24.1 | 0.00 | 0.15 | 0.00 | 84 | 1013.9 |
| 20260901063005 | 16 | 302 | 19.3 | 27.4 | 0.00 | 0.15 | 0.00 | 85 | 1013.8 |
| 20260901062505 | 16 | 302 | 20.9 | 27.4 | 0.00 | 0.15 | 0.00 | 85 | 1013.7 |
| 20260901062005 | 16 | 304 | 19.3 | 27.4 | 0.00 | 0.15 | 0.00 | 85 | 1013.8 |
| 20260901061505 | 16 | 311 | 19.3 | 24.1 | 0.00 | 0.15 | 0.00 | 86 | 1013.8 |
| 20260901061453 | 16 | 294 | 19.3 | 24.1 | 0.00 | 0.18 | 0.00 | 86 | 1015.6 |
| 20260901061005 | 16 | 285 | 19.3 | 24.1 | 0.00 | 0.15 | 0.00 | 87 | 1013.5 |
| 20260901060954 | 16 | 290 | 19.3 | 24.1 | 0.00 | 0.18 | 0.00 | 87 | 1015.6 |
| 20260901060505 | 15 | 288 | 17.7 | 19.3 | 0.00 | 0.15 | 0.00 | 88 | 1013.7 |
| 20260901060454 | 15 | 303 | 16.1 | 24.1 | 0.00 | 0.18 | 0.00 | 88 | 1015.4 |
| 20260901060005 | 15 | 283 | 16.1 | 19.3 | 0.00 | 0.15 | 0.00 | 88 | 1013.7 |
| 20260901060000 | 15 | 286 | 14.5 | 20.9 | 0.00 | 0.18 | 0.00 | 88 | 1015.4 |
| 20260901055505 | 15 | 264 | 12.9 | 16.1 | 0.00 | 0.15 | 0.00 | 88 | 1013.6 |
| 20260901055453 | 15 | 252 | 12.9 | 19.3 | 0.00 | 0.18 | 0.00 | 88 | 1015.5 |
| 20260901055005 | 15 | 263 | 12.9 | 19.3 | 0.00 | 0.15 | 0.00 | 88 | 1013.6 |
| 20260901054954 | 15 | 249 | 12.9 | 19.3 | 0.00 | 0.18 | 0.00 | 88 | 1015.6 |
| 20260901054454 | 15 | 268 | 14.5 | 19.3 | 0.00 | 0.18 | 0.00 | 89 | 1015.3 |
| 20260901054005 | 15 | 239 | 14.5 | 17.7 | 0.00 | 0.15 | 0.00 | 89 | 1013.4 |
| 20260901053954 | 15 | 298 | 14.5 | 17.7 | 0.00 | 0.18 | 0.00 | 90 | 1015.2 |
| 20260901053505 | 15 | 242 | 12.9 | 17.7 | 0.00 | 0.15 | 0.00 | 89 | 1013.4 |
| 20260901052954 | 15 | 275 | 12.9 | 17.7 | 0.00 | 0.18 | 0.00 | 91 | 1015.2 |
| 20260901051954 | 15 | 279 | 12.9 | 16.1 | 0.00 | 0.18 | 0.00 | 92 | 1015.2 |
| 20260901051454 | 15 | 253 | 12.9 | 16.1 | 0.00 | 0.18 | 0.00 | 93 | 1015.1 |
| 20260901051005 | 15 | 260 | 11.3 | 14.5 | 0.00 | 0.15 | 0.00 | 91 | 1013.2 |
| 20260901050954 | 15 | 270 | 11.3 | 14.5 | 0.00 | 0.18 | 0.00 | 93 | 1015.0 |
| 20260901050504 | 15 | 257 | 9.7 | 12.9 | 0.00 | 0.15 | 0.00 | 91 | 1013.1 |
| 20260901050453 | 15 | 289 | 9.7 | 12.9 | 0.00 | 0.18 | 0.00 | 93 | 1014.9 |
| 20260901050005 | 15 | 264 | 9.7 | 11.3 | 0.00 | 0.15 | 0.00 | 92 | 1013.0 |
| 20260901050000 | 15 | 274 | 8.0 | 11.3 | 0.00 | 0.18 | 0.00 | 93 | 1015.0 |
| 20260901045505 | 14 | 261 | 9.7 | 11.3 | 0.00 | 0.15 | 0.00 | 92 | 1012.9 |
| 20260901045454 | 14 | 256 | 9.7 | 11.3 | 0.00 | 0.18 | 0.00 | 93 | 1014.8 |
| 20260901045005 | 14 | 274 | 9.7 | 11.3 | 0.00 | 0.15 | 0.00 | 92 | 1012.7 |
| 20260901044953 | 14 | 251 | 9.7 | 11.3 | 0.00 | 0.18 | 0.00 | 93 | 1015.1 |
| 20260901044506 | 14 | 283 | 9.7 | 11.3 | 0.00 | 0.15 | 0.00 | 92 | 1012.9 |
| 20260901044454 | 14 | 255 | 9.7 | 11.3 | 0.00 | 0.18 | 0.00 | 93 | 1015.0 |
| 20260901044005 | 14 | 282 | 9.7 | 12.9 | 0.00 | 0.15 | 0.00 | 92 | 1012.9 |
| 20260901043954 | 14 | 258 | 9.7 | 12.9 | 0.00 | 0.18 | 0.00 | 94 | 1014.6 |
| 20260901043505 | 14 | 278 | 11.3 | 12.9 | 0.00 | 0.15 | 0.00 | 92 | 1012.9 |
| 20260901043454 | 14 | 271 | 11.3 | 12.9 | 0.00 | 0.18 | 0.00 | 94 | 1014.7 |
| 20260901043005 | 14 | 252 | 12.9 | 12.9 | 0.00 | 0.15 | 0.00 | 92 | 1012.7 |
| 20260901042953 | 14 | 270 | 12.9 | 14.5 | 0.00 | 0.18 | 0.00 | 94 | 1014.8 |
| 20260901042505 | 14 | 263 | 11.3 | 12.9 | 0.00 | 0.15 | 0.00 | 92 | 1012.5 |
| 20260901042005 | 14 | 285 | 6.4 | 12.9 | 0.00 | 0.15 | 0.00 | 92 | 1012.6 |
| 20260901041954 | 14 | 270 | 6.4 | 14.5 | 0.00 | 0.18 | 0.00 | 93 | 1014.5 |
| 20260901041505 | 14 | 243 | 3.2 | 8.0 | 0.00 | 0.15 | 0.00 | 91 | 1012.6 |
| 20260901041454 | 14 | 241 | 3.2 | 4.8 | 0.00 | 0.18 | 0.00 | 93 | 1014.5 |
| 20260901041005 | 14 | 250 | 1.6 | 4.8 | 0.00 | 0.15 | 0.00 | 91 | 1012.5 |
| 20260901040954 | 14 | 225 | 3.2 | 4.8 | 0.00 | 0.18 | 0.00 | 92 | 1014.4 |
| 20260901040505 | 14 | 248 | 1.6 | 3.2 | 0.00 | 0.15 | 0.00 | 91 | 1012.5 |
| 20260901040005 | 14 | 240 | 3.2 | 6.4 | 0.00 | 0.15 | 0.00 | 91 | 1012.3 |
| 20260901040000 | 14 | 254 | 3.2 | 6.4 | 0.00 | 0.18 | 0.00 | 92 | 1014.3 |
| 20260901035505 | 15 | 246 | 4.8 | 6.4 | 0.00 | 0.15 | 0.00 | 91 | 1012.2 |
| 20260901035454 | 15 | 290 | 4.8 | 6.4 | 0.00 | 0.18 | 0.00 | 92 | 1014.2 |
| 20260901035005 | 15 | 240 | 4.8 | 6.4 | 0.00 | 0.15 | 0.00 | 91 | 1012.4 |
| 20260901034954 | 15 | 278 | 4.8 | 6.4 | 0.00 | 0.18 | 0.00 | 92 | 1014.2 |
| 20260901034505 | 15 | 231 | 4.8 | 6.4 | 0.00 | 0.15 | 0.00 | 90 | 1012.3 |
| 20260901034453 | 15 | 264 | 6.4 | 11.3 | 0.00 | 0.18 | 0.00 | 92 | 1014.2 |
| 20260901034005 | 15 | 243 | 8.0 | 12.9 | 0.00 | 0.15 | 0.00 | 90 | 1012.2 |
| 20260901033954 | 15 | 258 | 8.0 | 12.9 | 0.00 | 0.18 | 0.00 | 91 | 1014.2 |
| 20260901033505 | 15 | 251 | 9.7 | 12.9 | 0.00 | 0.15 | 0.00 | 90 | 1012.2 |
| 20260901033454 | 15 | 253 | 11.3 | 12.9 | 0.00 | 0.18 | 0.00 | 92 | 1014.2 |
| 20260901033005 | 15 | 262 | 9.7 | 12.9 | 0.00 | 0.15 | 0.00 | 91 | 1012.2 |
| 20260901032954 | 15 | 248 | 9.7 | 12.9 | 0.00 | 0.18 | 0.00 | 93 | 1014.0 |
| 20260901032505 | 15 | 261 | 6.4 | 9.7 | 0.00 | 0.15 | 0.00 | 91 | 1012.1 |
| 20260901032006 | 15 | 235 | 4.8 | 6.4 | 0.00 | 0.15 | 0.00 | 91 | 1012.2 |
| 20260901031505 | 15 | 236 | 4.8 | 6.4 | 0.00 | 0.15 | 0.00 | 91 | 1012.0 |
| 20260901031005 | 15 | 232 | 4.8 | 6.4 | 0.00 | 0.15 | 0.00 | 91 | 1012.0 |
| 20260901030954 | 15 | 224 | 4.8 | 6.4 | 0.00 | 0.18 | 0.00 | 92 | 1013.9 |
| 20260901030505 | 15 | 228 | 4.8 | 6.4 | 0.00 | 0.15 | 0.00 | 91 | 1012.0 |
| 20260901030453 | 15 | 227 | 4.8 | 6.4 | 0.00 | 0.18 | 0.00 | 93 | 1014.0 |
| 20260901030005 | 15 | 235 | 4.8 | 6.4 | 0.00 | 0.15 | 0.00 | 91 | 1012.0 |
| 20260901025959 | 15 | 233 | 4.8 | 6.4 | 0.00 | 0.18 | 0.00 | 92 | 1014.0 |
| 20260901025505 | 15 | 247 | 6.4 | 8.0 | 0.00 | 0.15 | 0.00 | 91 | 1012.1 |
| 20260901025454 | 15 | 248 | 6.4 | 8.0 | 0.00 | 0.18 | 0.00 | 92 | 1014.1 |
| 20260901024954 | 15 | 256 | 8.0 | 9.7 | 0.00 | 0.18 | 0.00 | 92 | 1014.0 |
| 20260901024505 | 15 | 272 | 8.0 | 9.7 | 0.00 | 0.15 | 0.00 | 91 | 1012.1 |
| 20260901024453 | 15 | 254 | 8.0 | 9.7 | 0.00 | 0.18 | 0.00 | 92 | 1014.1 |
| 20260901023954 | 15 | 260 | 8.0 | 11.3 | 0.00 | 0.18 | 0.00 | 92 | 1014.3 |
| 20260901023505 | 15 | 252 | 9.7 | 11.3 | 0.00 | 0.15 | 0.00 | 91 | 1012.1 |
| 20260901023005 | 15 | 252 | 8.0 | 11.3 | 0.00 | 0.15 | 0.00 | 91 | 1012.0 |
| 20260901022954 | 15 | 245 | 8.0 | 11.3 | 0.00 | 0.18 | 0.00 | 92 | 1014.0 |
| 20260901022505 | 15 | 256 | 8.0 | 11.3 | 0.00 | 0.15 | 0.00 | 91 | 1012.0 |
| 20260901022454 | 15 | 238 | 6.4 | 11.3 | 0.00 | 0.18 | 0.00 | 92 | 1014.1 |
| 20260901022005 | 15 | 240 | 6.4 | 6.4 | 0.00 | 0.15 | 0.00 | 91 | 1011.9 |
| 20260901021954 | 15 | 249 | 6.4 | 8.0 | 0.00 | 0.18 | 0.00 | 92 | 1014.0 |
| 20260901021504 | 15 | 266 | 6.4 | 6.4 | 0.00 | 0.15 | 0.00 | 91 | 1011.9 |
| 20260901021454 | 15 | 254 | 6.4 | 6.4 | 0.00 | 0.18 | 0.00 | 92 | 1014.0 |
| 20260901020955 | 15 | 245 | 6.4 | 8.0 | 0.00 | 0.18 | 0.00 | 92 | 1013.9 |
| 20260901020505 | 16 | 289 | 6.4 | 8.0 | 0.00 | 0.15 | 0.00 | 92 | 1012.0 |
| 20260901020005 | 16 | 235 | 6.4 | 9.7 | 0.00 | 0.15 | 0.00 | 92 | 1012.1 |
| 20260901015504 | 16 | 236 | 8.0 | 12.9 | 0.00 | 0.15 | 0.00 | 92 | 1011.9 |
| 20260901015005 | 16 | 253 | 9.7 | 12.9 | 0.00 | 0.15 | 0.00 | 92 | 1012.1 |
| 20260901014505 | 16 | 275 | 9.7 | 11.3 | 0.00 | 0.15 | 0.00 | 92 | 1012.1 |
| 20260901014454 | 16 | 278 | 9.7 | 12.9 | 0.00 | 0.18 | 0.00 | 93 | 1014.1 |
| 20260901014005 | 16 | 288 | 8.0 | 11.3 | 0.00 | 0.15 | 0.00 | 92 | 1012.1 |
| 20260901013954 | 16 | 253 | 8.0 | 12.9 | 0.00 | 0.18 | 0.00 | 93 | 1014.0 |
| 20260901013454 | 16 | 237 | 6.4 | 8.0 | 0.00 | 0.18 | 0.00 | 92 | 1013.9 |
| 20260901013005 | 16 | 266 | 6.4 | 8.0 | 0.00 | 0.15 | 0.00 | 91 | 1011.9 |
| 20260901012953 | 16 | 255 | 6.4 | 8.0 | 0.00 | 0.18 | 0.00 | 92 | 1014.1 |
| 20260901012505 | 16 | 265 | 6.4 | 8.0 | 0.00 | 0.15 | 0.00 | 92 | 1012.0 |
| 20260901012005 | 16 | 258 | 8.0 | 11.3 | 0.00 | 0.15 | 0.00 | 92 | 1011.9 |
| 20260901011954 | 16 | 242 | 8.0 | 11.3 | 0.00 | 0.18 | 0.00 | 92 | 1014.0 |
| 20260901011505 | 16 | 245 | 8.0 | 11.3 | 0.00 | 0.15 | 0.00 | 92 | 1011.8 |
| 20260901010505 | 16 | 250 | 8.0 | 11.3 | 0.00 | 0.15 | 0.00 | 93 | 1011.9 |
| 20260901010005 | 16 | 263 | 9.7 | 11.3 | 0.00 | 0.15 | 0.00 | 93 | 1012.1 |
| 20260901005505 | 16 | 270 | 9.7 | 14.5 | 0.00 | 0.15 | 0.00 | 93 | 1012.0 |
| 20260901005454 | 16 | 245 | 11.3 | 14.5 | 0.00 | 0.18 | 0.00 | 94 | 1014.0 |
| 20260901005005 | 16 | 263 | 9.7 | 14.5 | 0.00 | 0.15 | 0.00 | 94 | 1012.1 |
| 20260901004953 | 16 | 245 | 9.7 | 14.5 | 0.00 | 0.18 | 0.00 | 94 | 1014.0 |
| 20260901004454 | 16 | 250 | 8.0 | 9.7 | 0.00 | 0.18 | 0.00 | 95 | 1013.9 |
| 20260901004004 | 16 | 238 | 6.4 | 9.7 | 0.00 | 0.15 | 0.00 | 94 | 1012.0 |
| 20260901003954 | 16 | 238 | 6.4 | 9.7 | 0.00 | 0.18 | 0.00 | 95 | 1013.9 |
| 20260901003504 | 16 | 220 | 6.4 | 9.7 | 0.00 | 0.15 | 0.00 | 94 | 1011.9 |
| 20260901003453 | 16 | 222 | 6.4 | 8.0 | 0.00 | 0.18 | 0.00 | 96 | 1013.9 |
| 20260901003004 | 16 | 221 | 6.4 | 9.7 | 0.00 | 0.15 | 0.00 | 94 | 1011.9 |
| 20260901002504 | 16 | 226 | 6.4 | 9.7 | 0.00 | 0.15 | 0.00 | 95 | 1011.9 |
| 20260901002454 | 16 | 240 | 6.4 | 8.0 | 0.00 | 0.18 | 0.00 | 96 | 1013.7 |
| 20260901002005 | 16 | 233 | 6.4 | 9.7 | 0.00 | 0.15 | 0.00 | 95 | 1011.8 |
| 20260901001954 | 16 | 257 | 6.4 | 8.0 | 0.00 | 0.18 | 0.00 | 97 | 1013.9 |
| 20260901001505 | 16 | 229 | 6.4 | 8.0 | 0.00 | 0.15 | 0.00 | 95 | 1011.9 |
| 20260901001454 | 16 | 232 | 4.8 | 6.4 | 0.00 | 0.18 | 0.00 | 97 | 1014.0 |
| 20260901001005 | 16 | 166 | 4.8 | 8.0 | 0.00 | 0.15 | 0.00 | 95 | 1011.9 |
| 20260901000505 | 16 | 171 | 3.2 | 4.8 | 0.00 | 0.15 | 0.00 | 95 | 1011.6 |
| 20260901000454 | 16 | 216 | 3.2 | 4.8 | 0.00 | 0.18 | 0.00 | 97 | 1013.5 |
| 20260831235959 | 16 | 228 | 3.2 | 6.4 | 0.00 | 0.18 | 0.00 | 97 | 1013.7 |
| 20260831235504 | 16 | 216 | 4.8 | 4.8 | 0.00 | 0.15 | 0.00 | 95 | 1011.9 |
| 20260831235454 | 16 | 229 | 3.2 | 6.4 | 0.00 | 0.18 | 0.00 | 97 | 1013.8 |
| 20260831235004 | 16 | 218 | 3.2 | 3.2 | 0.00 | 0.15 | 0.00 | 95 | 1012.0 |
| 20260831234954 | 16 | 216 | 3.2 | 3.2 | 0.00 | 0.18 | 0.00 | 99 | 1013.9 |
| 20260831234504 | 16 | 221 | 3.2 | 3.2 | 0.00 | 0.15 | 0.00 | 95 | 1012.0 |
| 20260831234454 | 16 | 212 | 1.6 | 3.2 | 0.00 | 0.18 | 0.00 | 99 | 1013.8 |
| 20260831234005 | 16 | 225 | 1.6 | 3.2 | 0.00 | 0.15 | 0.00 | 95 | 1011.8 |
| 20260831233953 | 16 | 202 | 1.6 | 3.2 | 0.00 | 0.18 | 0.00 | 98 | 1013.7 |
| 20260831233504 | 16 | 270 | 0.0 | 3.2 | 0.00 | 0.15 | 0.00 | 95 | 1012.0 |
| 20260831233454 | 16 | 212 | 1.6 | 3.2 | 0.00 | 0.18 | 0.00 | 98 | 1013.8 |
| 20260831233005 | 16 | 255 | 1.6 | 4.8 | 0.00 | 0.15 | 0.00 | 95 | 1011.8 |
| 20260831232954 | 16 | 227 | 1.6 | 4.8 | 0.00 | 0.18 | 0.00 | 98 | 1014.0 |
| 20260831232505 | 16 | 239 | 3.2 | 6.4 | 0.00 | 0.15 | 0.00 | 95 | 1011.9 |
| 20260831232454 | 16 | 231 | 3.2 | 4.8 | 0.00 | 0.18 | 0.00 | 98 | 1014.1 |
| 20260831232004 | 16 | 223 | 3.2 | 6.4 | 0.00 | 0.15 | 0.00 | 96 | 1012.1 |
| 20260831231505 | 16 | 225 | 3.2 | 4.8 | 0.00 | 0.15 | 0.00 | 96 | 1012.2 |
| 20260831231454 | 16 | 219 | 3.2 | 4.8 | 0.00 | 0.18 | 0.00 | 98 | 1014.0 |
| 20260831231004 | 16 | 231 | 3.2 | 4.8 | 0.00 | 0.15 | 0.00 | 96 | 1012.2 |
| 20260831230954 | 16 | 213 | 3.2 | 4.8 | 0.00 | 0.18 | 0.00 | 98 | 1013.9 |
| 20260831230505 | 16 | 223 | 3.2 | 3.2 | 0.00 | 0.15 | 0.00 | 96 | 1012.1 |
| 20260831230454 | 16 | 202 | 3.2 | 3.2 | 0.00 | 0.18 | 0.00 | 98 | 1014.1 |
| 20260831230005 | 16 | 216 | 3.2 | 3.2 | 0.00 | 0.15 | 0.00 | 96 | 1012.2 |
| 20260831230000 | 16 | 197 | 3.2 | 3.2 | 0.00 | 0.18 | 0.00 | 98 | 1014.3 |
| 20260831225505 | 16 | 213 | 3.2 | 3.2 | 0.00 | 0.15 | 0.00 | 96 | 1012.3 |
| 20260831225455 | 16 | 201 | 3.2 | 3.2 | 0.00 | 0.18 | 0.00 | 98 | 1014.2 |
| 20260831224953 | 16 | 217 | 3.2 | 4.8 | 0.00 | 0.18 | 0.00 | 98 | 1014.5 |
| 20260831224454 | 16 | 211 | 4.8 | 4.8 | 0.00 | 0.18 | 0.00 | 98 | 1014.2 |
| 20260831224005 | 16 | 251 | 4.8 | 6.4 | 0.00 | 0.15 | 0.00 | 96 | 1012.3 |
| 20260831223954 | 16 | 201 | 4.8 | 4.8 | 0.00 | 0.18 | 0.00 | 98 | 1014.3 |
| 20260831223454 | 16 | 219 | 4.8 | 6.4 | 0.00 | 0.18 | 0.00 | 98 | 1014.5 |
| 20260831223005 | 16 | 237 | 4.8 | 6.4 | 0.00 | 0.15 | 0.00 | 96 | 1012.2 |
| 20260831222954 | 16 | 237 | 4.8 | 6.4 | 0.00 | 0.18 | 0.00 | 98 | 1014.5 |
| 20260831222504 | 16 | 233 | 4.8 | 9.7 | 0.00 | 0.15 | 0.00 | 96 | 1012.5 |
| 20260831222454 | 16 | 247 | 4.8 | 6.4 | 0.00 | 0.18 | 0.00 | 98 | 1014.3 |
| 20260831222004 | 16 | 235 | 6.4 | 9.7 | 0.00 | 0.15 | 0.00 | 96 | 1012.4 |
| 20260831221954 | 16 | 248 | 4.8 | 6.4 | 0.00 | 0.18 | 0.00 | 98 | 1014.5 |
| 20260831221505 | 16 | 208 | 4.8 | 6.4 | 0.00 | 0.15 | 0.00 | 96 | 1012.4 |
| 20260831221454 | 16 | 239 | 4.8 | 6.4 | 0.00 | 0.18 | 0.00 | 98 | 1014.6 |
| 20260831221005 | 16 | 149 | 4.8 | 6.4 | 0.00 | 0.15 | 0.00 | 96 | 1012.5 |
| 20260831220954 | 16 | 229 | 3.2 | 6.4 | 0.00 | 0.18 | 0.00 | 98 | 1014.6 |
| 20260831220505 | 16 | 160 | 4.8 | 4.8 | 0.00 | 0.15 | 0.00 | 96 | 1012.4 |
| 20260831220454 | 16 | 213 | 3.2 | 4.8 | 0.00 | 0.18 | 0.00 | 98 | 1014.4 |
| 20260831220006 | 16 | 229 | 4.8 | 6.4 | 0.00 | 0.15 | 0.00 | 96 | 1012.4 |
| 20260831220000 | 16 | 189 | 3.2 | 4.8 | 0.00 | 0.18 | 0.00 | 98 | 1014.5 |
| 20260831215504 | 16 | 239 | 3.2 | 6.4 | 0.00 | 0.15 | 0.15 | 96 | 1012.4 |
| 20260831215454 | 16 | 208 | 3.2 | 4.8 | 0.00 | 0.18 | 0.18 | 98 | 1014.3 |
| 20260831215004 | 16 | 224 | 3.2 | 4.8 | 0.00 | 0.15 | 0.15 | 96 | 1012.3 |
| 20260831214954 | 16 | 236 | 3.2 | 3.2 | 0.00 | 0.18 | 0.18 | 98 | 1014.3 |
| 20260831214505 | 16 | 222 | 4.8 | 6.4 | 0.00 | 0.15 | 0.15 | 96 | 1012.3 |
| 20260831214454 | 16 | 217 | 3.2 | 6.4 | 0.00 | 0.18 | 0.18 | 98 | 1014.3 |
| 20260831214005 | 16 | 228 | 4.8 | 6.4 | 0.00 | 0.15 | 0.15 | 96 | 1012.2 |
| 20260831213955 | 16 | 219 | 4.8 | 6.4 | 0.00 | 0.18 | 0.18 | 98 | 1014.2 |
| 20260831213504 | 16 | 226 | 3.2 | 6.4 | 0.00 | 0.15 | 0.15 | 96 | 1012.2 |
| 20260831213005 | 16 | 222 | 3.2 | 3.2 | 0.00 | 0.15 | 0.15 | 96 | 1012.1 |
| 20260831212954 | 16 | 207 | 1.6 | 3.2 | 0.00 | 0.18 | 0.18 | 98 | 1013.8 |
| 20260831212505 | 16 | 238 | 3.2 | 4.8 | 0.00 | 0.15 | 0.15 | 96 | 1012.2 |
| 20260831212454 | 16 | 227 | 3.2 | 4.8 | 0.00 | 0.18 | 0.18 | 98 | 1014.3 |
| 20260831212005 | 16 | 255 | 3.2 | 6.4 | 0.00 | 0.15 | 0.15 | 96 | 1012.0 |
| 20260831211954 | 16 | 236 | 3.2 | 6.4 | 0.00 | 0.18 | 0.18 | 98 | 1014.2 |
| 20260831211504 | 17 | 247 | 3.2 | 6.4 | 0.00 | 0.15 | 0.15 | 95 | 1012.0 |
| 20260831211454 | 16 | 219 | 3.2 | 6.4 | 0.00 | 0.18 | 0.18 | 98 | 1013.6 |
| 20260831211004 | 17 | 247 | 3.2 | 4.8 | 0.00 | 0.15 | 0.15 | 95 | 1012.0 |
| 20260831210954 | 17 | 215 | 3.2 | 3.2 | 0.00 | 0.18 | 0.18 | 97 | 1013.8 |
| 20260831210505 | 17 | 236 | 4.8 | 4.8 | 0.00 | 0.15 | 0.15 | 95 | 1012.1 |
| 20260831210454 | 17 | 218 | 3.2 | 4.8 | 0.00 | 0.18 | 0.18 | 97 | 1014.0 |
| 20260831210005 | 17 | 238 | 4.8 | 6.4 | 0.00 | 0.15 | 0.15 | 95 | 1012.4 |
| 20260831210000 | 17 | 232 | 4.8 | 6.4 | 0.00 | 0.18 | 0.18 | 97 | 1014.4 |
| 20260831205504 | 17 | 253 | 3.2 | 6.4 | 0.00 | 0.15 | 0.15 | 95 | 1012.5 |
| 20260831205454 | 17 | 234 | 4.8 | 6.4 | 0.00 | 0.18 | 0.18 | 97 | 1014.1 |
| 20260831205005 | 17 | 236 | 1.6 | 6.4 | 0.00 | 0.15 | 0.15 | 95 | 1012.3 |
| 20260831204953 | 17 | 206 | 3.2 | 6.4 | 0.00 | 0.18 | 0.18 | 97 | 1014.3 |
| 20260831204505 | 17 | 225 | 1.6 | 3.2 | 0.00 | 0.15 | 0.15 | 95 | 1012.2 |
| 20260831204454 | 17 | 218 | 1.6 | 3.2 | 0.00 | 0.18 | 0.18 | 97 | 1014.1 |
| 20260831204004 | 17 | 225 | 1.6 | 3.2 | 0.00 | 0.15 | 0.15 | 95 | 1012.1 |
| 20260831203954 | 17 | 220 | 1.6 | 3.2 | 0.00 | 0.18 | 0.18 | 97 | 1014.0 |
| 20260831203504 | 17 | 225 | 0.0 | 1.6 | 0.00 | 0.15 | 0.15 | 94 | 1012.0 |
| 20260831203453 | 17 | 211 | 1.6 | 3.2 | 0.00 | 0.18 | 0.18 | 97 | 1014.1 |
| 20260831203005 | 17 | 239 | 0.0 | 1.6 | 0.00 | 0.15 | 0.15 | 94 | 1011.9 |
| 20260831202954 | 17 | 220 | 1.6 | 3.2 | 0.00 | 0.18 | 0.18 | 97 | 1013.9 |
| 20260831202505 | 17 | 232 | 0.0 | 3.2 | 0.00 | 0.15 | 0.15 | 94 | 1012.0 |
| 20260831202454 | 17 | 181 | 1.6 | 3.2 | 0.00 | 0.18 | 0.18 | 97 | 1013.9 |
| 20260831202005 | 17 | 225 | 0.0 | 3.2 | 0.00 | 0.15 | 0.15 | 94 | 1012.2 |
| 20260831201954 | 17 | 177 | 1.6 | 3.2 | 0.00 | 0.18 | 0.18 | 97 | 1014.2 |
| 20260831201504 | 17 | 225 | 0.0 | 3.2 | 0.00 | 0.15 | 0.15 | 94 | 1012.1 |
| 20260831201454 | 17 | 173 | 0.0 | 3.2 | 0.00 | 0.18 | 0.18 | 97 | 1014.1 |